sensor_id;sensor_type;location;lat;lon;timestamp;P1;durP1;ratioP1;P2;durP2;ratioP2
17528;SDS011;8882;53.192;8.184;2022-10-31T05:32:56;14.00;;;7.60;;
17528;SDS011;8882;53.192;8.184;2022-10-31T05:35:23;9.07;;;6.73;;
17528;SDS011;8882;53.192;8.184;2022-10-31T05:37:50;7.67;;;6.27;;
17528;SDS011;8882;53.192;8.184;2022-10-31T05:40:17;12.47;;;6.93;;
17528;SDS011;8882;53.192;8.184;2022-10-31T05:42:44;9.83;;;6.90;;
17528;SDS011;8882;53.192;8.184;2022-10-31T05:45:13;10.67;;;6.93;;
17528;SDS011;8882;53.192;8.184;2022-10-31T05:47:40;7.93;;;6.73;;
17528;SDS011;8882;53.192;8.184;2022-10-31T05:50:06;8.33;;;6.77;;
17528;SDS011;8882;53.192;8.184;2022-10-31T05:52:33;8.50;;;6.60;;
17528;SDS011;8882;53.192;8.184;2022-10-31T05:54:59;10.10;;;7.10;;
17528;SDS011;8882;53.192;8.184;2022-10-31T05:57:25;8.20;;;6.47;;
17528;SDS011;8882;53.192;8.184;2022-10-31T05:59:50;8.13;;;6.53;;
17528;SDS011;8882;53.192;8.184;2022-10-31T06:02:19;8.87;;;7.23;;
17528;SDS011;8882;53.192;8.184;2022-10-31T06:04:45;9.23;;;6.90;;
17528;SDS011;8882;53.192;8.184;2022-10-31T06:07:11;9.60;;;6.83;;
17528;SDS011;8882;53.192;8.184;2022-10-31T06:09:36;9.40;;;6.97;;
17528;SDS011;8882;53.192;8.184;2022-10-31T06:12:02;10.23;;;6.83;;
17528;SDS011;8882;53.192;8.184;2022-10-31T06:14:27;8.87;;;7.23;;
17528;SDS011;8882;53.192;8.184;2022-10-31T06:16:56;10.57;;;7.53;;
17528;SDS011;8882;53.192;8.184;2022-10-31T06:19:22;8.53;;;6.83;;
17528;SDS011;8882;53.192;8.184;2022-10-31T06:21:47;9.13;;;6.70;;
17528;SDS011;8882;53.192;8.184;2022-10-31T06:24:13;9.83;;;6.87;;
17528;SDS011;8882;53.192;8.184;2022-10-31T06:26:39;9.97;;;7.50;;
17528;SDS011;8882;53.192;8.184;2022-10-31T06:29:05;9.10;;;7.40;;
17528;SDS011;8882;53.192;8.184;2022-10-31T06:31:31;9.20;;;6.67;;
17528;SDS011;8882;53.192;8.184;2022-10-31T06:33:56;10.63;;;7.50;;
17528;SDS011;8882;53.192;8.184;2022-10-31T06:36:22;9.90;;;7.33;;
17528;SDS011;8882;53.192;8.184;2022-10-31T06:38:47;9.80;;;7.10;;
17528;SDS011;8882;53.192;8.184;2022-10-31T06:41:13;12.40;;;7.70;;
17528;SDS011;8882;53.192;8.184;2022-10-31T06:43:38;10.17;;;7.40;;
17528;SDS011;8882;53.192;8.184;2022-10-31T06:46:04;9.53;;;7.13;;
17528;SDS011;8882;53.192;8.184;2022-10-31T06:48:30;12.30;;;7.70;;
17528;SDS011;8882;53.192;8.184;2022-10-31T06:50:57;10.37;;;8.20;;
17528;SDS011;8882;53.192;8.184;2022-10-31T06:53:24;12.47;;;7.70;;
17528;SDS011;8882;53.192;8.184;2022-10-31T06:55:50;13.03;;;8.20;;
17528;SDS011;8882;53.192;8.184;2022-10-31T06:58:15;11.10;;;7.80;;
17528;SDS011;8882;53.192;8.184;2022-10-31T07:00:41;13.07;;;8.47;;
17528;SDS011;8882;53.192;8.184;2022-10-31T07:03:09;10.23;;;8.33;;
17528;SDS011;8882;53.192;8.184;2022-10-31T07:05:36;11.60;;;8.37;;
17528;SDS011;8882;53.192;8.184;2022-10-31T07:08:03;10.83;;;8.07;;
17528;SDS011;8882;53.192;8.184;2022-10-31T07:10:31;13.67;;;8.33;;
17528;SDS011;8882;53.192;8.184;2022-10-31T07:12:59;12.83;;;7.27;;
17528;SDS011;8882;53.192;8.184;2022-10-31T07:15:27;12.27;;;8.03;;
17528;SDS011;8882;53.192;8.184;2022-10-31T07:17:58;13.73;;;8.57;;
17528;SDS011;8882;53.192;8.184;2022-10-31T07:20:26;11.10;;;8.27;;
17528;SDS011;8882;53.192;8.184;2022-10-31T07:22:52;12.43;;;8.60;;
17528;SDS011;8882;53.192;8.184;2022-10-31T07:25:17;10.00;;;8.10;;
17528;SDS011;8882;53.192;8.184;2022-10-31T07:27:43;13.40;;;8.97;;
17528;SDS011;8882;53.192;8.184;2022-10-31T07:30:10;13.47;;;9.00;;
17528;SDS011;8882;53.192;8.184;2022-10-31T07:32:57;12.23;;;8.07;;
17528;SDS011;8882;53.192;8.184;2022-10-31T07:35:25;11.60;;;8.73;;
17528;SDS011;8882;53.192;8.184;2022-10-31T07:37:52;14.07;;;8.67;;
17528;SDS011;8882;53.192;8.184;2022-10-31T07:40:18;13.43;;;8.60;;
17528;SDS011;8882;53.192;8.184;2022-10-31T07:42:45;11.37;;;8.13;;
17528;SDS011;8882;53.192;8.184;2022-10-31T07:45:12;11.77;;;8.63;;
17528;SDS011;8882;53.192;8.184;2022-10-31T07:47:40;14.30;;;7.83;;
17528;SDS011;8882;53.192;8.184;2022-10-31T07:50:17;13.57;;;8.53;;
17528;SDS011;8882;53.192;8.184;2022-10-31T07:52:47;13.80;;;8.63;;
17528;SDS011;8882;53.192;8.184;2022-10-31T07:55:22;12.57;;;8.57;;
17528;SDS011;8882;53.192;8.184;2022-10-31T07:57:55;17.53;;;8.83;;
17528;SDS011;8882;53.192;8.184;2022-10-31T08:00:21;14.37;;;8.37;;
17528;SDS011;8882;53.192;8.184;2022-10-31T08:02:46;13.00;;;8.90;;
17528;SDS011;8882;53.192;8.184;2022-10-31T08:05:12;14.40;;;9.07;;
17528;SDS011;8882;53.192;8.184;2022-10-31T08:07:37;11.87;;;8.63;;
17528;SDS011;8882;53.192;8.184;2022-10-31T08:10:03;14.07;;;9.77;;
17528;SDS011;8882;53.192;8.184;2022-10-31T08:12:29;13.20;;;9.20;;
17528;SDS011;8882;53.192;8.184;2022-10-31T08:14:55;14.20;;;9.57;;
17528;SDS011;8882;53.192;8.184;2022-10-31T08:17:20;15.50;;;9.47;;
17528;SDS011;8882;53.192;8.184;2022-10-31T08:19:46;16.70;;;8.57;;
17528;SDS011;8882;53.192;8.184;2022-10-31T08:22:11;16.80;;;8.77;;
17528;SDS011;8882;53.192;8.184;2022-10-31T08:24:37;12.67;;;8.20;;
17528;SDS011;8882;53.192;8.184;2022-10-31T08:27:02;15.83;;;8.60;;
17528;SDS011;8882;53.192;8.184;2022-10-31T08:29:28;11.07;;;8.43;;
17528;SDS011;8882;53.192;8.184;2022-10-31T08:31:53;10.83;;;7.93;;
17528;SDS011;8882;53.192;8.184;2022-10-31T08:34:19;14.03;;;9.23;;
17528;SDS011;8882;53.192;8.184;2022-10-31T08:36:44;12.60;;;8.20;;
17528;SDS011;8882;53.192;8.184;2022-10-31T08:39:11;14.80;;;8.73;;
17528;SDS011;8882;53.192;8.184;2022-10-31T08:41:36;12.83;;;8.90;;
17528;SDS011;8882;53.192;8.184;2022-10-31T08:44:02;13.30;;;8.67;;
17528;SDS011;8882;53.192;8.184;2022-10-31T08:46:27;14.37;;;9.70;;
17528;SDS011;8882;53.192;8.184;2022-10-31T08:48:53;12.80;;;8.70;;
17528;SDS011;8882;53.192;8.184;2022-10-31T08:51:19;13.87;;;9.53;;
17528;SDS011;8882;53.192;8.184;2022-10-31T08:53:44;16.97;;;10.77;;
17528;SDS011;8882;53.192;8.184;2022-10-31T08:56:10;16.07;;;11.20;;
17528;SDS011;8882;53.192;8.184;2022-10-31T08:58:35;18.70;;;11.10;;
17528;SDS011;8882;53.192;8.184;2022-10-31T09:01:00;17.87;;;11.20;;
17528;SDS011;8882;53.192;8.184;2022-10-31T09:03:27;16.77;;;10.73;;
17528;SDS011;8882;53.192;8.184;2022-10-31T09:05:55;22.03;;;10.70;;
17528;SDS011;8882;53.192;8.184;2022-10-31T09:08:25;19.10;;;11.40;;
17528;SDS011;8882;53.192;8.184;2022-10-31T09:10:51;18.97;;;11.90;;
17528;SDS011;8882;53.192;8.184;2022-10-31T09:13:17;22.07;;;11.27;;
17528;SDS011;8882;53.192;8.184;2022-10-31T09:15:45;21.13;;;12.20;;
17528;SDS011;8882;53.192;8.184;2022-10-31T09:18:12;21.17;;;13.50;;
17528;SDS011;8882;53.192;8.184;2022-10-31T09:20:39;21.90;;;13.43;;
17528;SDS011;8882;53.192;8.184;2022-10-31T09:23:09;22.00;;;12.60;;
17528;SDS011;8882;53.192;8.184;2022-10-31T09:25:46;27.13;;;13.97;;
17528;SDS011;8882;53.192;8.184;2022-10-31T09:28:13;21.30;;;13.00;;
17528;SDS011;8882;53.192;8.184;2022-10-31T09:30:40;25.17;;;13.87;;
17528;SDS011;8882;53.192;8.184;2022-10-31T09:33:10;23.73;;;13.33;;
17528;SDS011;8882;53.192;8.184;2022-10-31T09:35:36;22.37;;;13.10;;
17528;SDS011;8882;53.192;8.184;2022-10-31T09:38:03;25.50;;;13.40;;
17528;SDS011;8882;53.192;8.184;2022-10-31T09:40:32;24.37;;;13.50;;
17528;SDS011;8882;53.192;8.184;2022-10-31T09:45:58;23.67;;;13.07;;
17528;SDS011;8882;53.192;8.184;2022-10-31T09:48:34;21.50;;;13.13;;
17528;SDS011;8882;53.192;8.184;2022-10-31T09:51:10;19.80;;;10.70;;
17528;SDS011;8882;53.192;8.184;2022-10-31T09:54:00;18.60;;;11.50;;
17528;SDS011;8882;53.192;8.184;2022-10-31T09:56:33;19.43;;;12.60;;
17528;SDS011;8882;53.192;8.184;2022-10-31T09:59:01;21.30;;;11.43;;
17528;SDS011;8882;53.192;8.184;2022-10-31T10:06:54;18.80;;;11.00;;
17528;SDS011;8882;53.192;8.184;2022-10-31T10:09:22;23.63;;;11.40;;
17528;SDS011;8882;53.192;8.184;2022-10-31T10:12:07;21.00;;;10.53;;
17528;SDS011;8882;53.192;8.184;2022-10-31T10:14:54;19.70;;;11.23;;
17528;SDS011;8882;53.192;8.184;2022-10-31T10:17:36;19.57;;;12.20;;
17528;SDS011;8882;53.192;8.184;2022-10-31T10:20:21;17.73;;;10.27;;
17528;SDS011;8882;53.192;8.184;2022-10-31T10:25:49;19.10;;;12.03;;
17528;SDS011;8882;53.192;8.184;2022-10-31T10:28:23;19.40;;;11.07;;
17528;SDS011;8882;53.192;8.184;2022-10-31T10:30:55;18.30;;;11.10;;
17528;SDS011;8882;53.192;8.184;2022-10-31T10:33:38;16.70;;;9.50;;
17528;SDS011;8882;53.192;8.184;2022-10-31T10:36:10;16.17;;;7.97;;
17528;SDS011;8882;53.192;8.184;2022-10-31T10:38:51;14.40;;;7.87;;
17528;SDS011;8882;53.192;8.184;2022-10-31T10:41:20;14.67;;;7.93;;
17528;SDS011;8882;53.192;8.184;2022-10-31T10:43:51;12.00;;;7.33;;
17528;SDS011;8882;53.192;8.184;2022-10-31T10:46:26;11.87;;;6.83;;
17528;SDS011;8882;53.192;8.184;2022-10-31T10:49:26;9.90;;;7.70;;
17528;SDS011;8882;53.192;8.184;2022-10-31T10:52:27;11.80;;;7.50;;
17528;SDS011;8882;53.192;8.184;2022-10-31T10:57:40;10.77;;;5.87;;
17528;SDS011;8882;53.192;8.184;2022-10-31T11:00:24;9.13;;;5.67;;
17528;SDS011;8882;53.192;8.184;2022-10-31T11:02:51;8.50;;;5.20;;
17528;SDS011;8882;53.192;8.184;2022-10-31T11:05:20;13.87;;;6.60;;
17528;SDS011;8882;53.192;8.184;2022-10-31T11:08:07;7.50;;;5.63;;
17528;SDS011;8882;53.192;8.184;2022-10-31T11:10:33;9.10;;;5.30;;
17528;SDS011;8882;53.192;8.184;2022-10-31T11:15:49;6.67;;;4.57;;
17528;SDS011;8882;53.192;8.184;2022-10-31T11:18:21;10.60;;;4.20;;
17528;SDS011;8882;53.192;8.184;2022-10-31T11:20:53;5.77;;;3.40;;
17528;SDS011;8882;53.192;8.184;2022-10-31T11:23:20;6.80;;;3.80;;
17528;SDS011;8882;53.192;8.184;2022-10-31T11:25:49;7.37;;;3.97;;
17528;SDS011;8882;53.192;8.184;2022-10-31T11:28:16;6.30;;;3.67;;
17528;SDS011;8882;53.192;8.184;2022-10-31T11:30:46;5.93;;;3.72;;
17528;SDS011;8882;53.192;8.184;2022-10-31T11:33:16;7.50;;;4.23;;
17528;SDS011;8882;53.192;8.184;2022-10-31T11:35:44;7.47;;;3.40;;
17528;SDS011;8882;53.192;8.184;2022-10-31T11:38:15;9.43;;;4.33;;
17528;SDS011;8882;53.192;8.184;2022-10-31T11:40:55;6.13;;;3.83;;
17528;SDS011;8882;53.192;8.184;2022-10-31T11:43:28;7.30;;;3.57;;
17528;SDS011;8882;53.192;8.184;2022-10-31T11:45:53;7.27;;;3.47;;
17528;SDS011;8882;53.192;8.184;2022-10-31T11:48:20;4.73;;;3.30;;
17528;SDS011;8882;53.192;8.184;2022-10-31T11:50:49;6.43;;;4.07;;
17528;SDS011;8882;53.192;8.184;2022-10-31T11:53:18;6.10;;;3.70;;
17528;SDS011;8882;53.192;8.184;2022-10-31T11:55:48;7.17;;;4.13;;
17528;SDS011;8882;53.192;8.184;2022-10-31T11:58:30;6.63;;;4.40;;
17528;SDS011;8882;53.192;8.184;2022-10-31T12:00:56;5.90;;;3.40;;
17528;SDS011;8882;53.192;8.184;2022-10-31T12:06:05;5.40;;;3.93;;
17528;SDS011;8882;53.192;8.184;2022-10-31T12:08:35;5.90;;;3.90;;
17528;SDS011;8882;53.192;8.184;2022-10-31T12:22:11;8.57;;;4.37;;
17528;SDS011;8882;53.192;8.184;2022-10-31T12:30:25;10.37;;;5.73;;
17528;SDS011;8882;53.192;8.184;2022-10-31T12:33:15;11.17;;;5.23;;
17528;SDS011;8882;53.192;8.184;2022-10-31T12:41:23;11.43;;;6.43;;
17528;SDS011;8882;53.192;8.184;2022-10-31T12:44:30;13.07;;;6.57;;
17528;SDS011;8882;53.192;8.184;2022-10-31T12:47:19;15.77;;;7.80;;
17528;SDS011;8882;53.192;8.184;2022-10-31T12:53:04;14.10;;;7.27;;
17528;SDS011;8882;53.192;8.184;2022-10-31T12:55:45;18.23;;;7.50;;
17528;SDS011;8882;53.192;8.184;2022-10-31T12:58:36;10.53;;;7.03;;
17528;SDS011;8882;53.192;8.184;2022-10-31T13:01:12;11.00;;;7.07;;
17528;SDS011;8882;53.192;8.184;2022-10-31T13:04:05;14.27;;;8.13;;
17528;SDS011;8882;53.192;8.184;2022-10-31T13:06:47;13.90;;;7.10;;
17528;SDS011;8882;53.192;8.184;2022-10-31T13:09:24;14.40;;;7.50;;
17528;SDS011;8882;53.192;8.184;2022-10-31T13:12:08;13.67;;;7.67;;
17528;SDS011;8882;53.192;8.184;2022-10-31T13:14:41;16.83;;;9.03;;
17528;SDS011;8882;53.192;8.184;2022-10-31T13:17:20;17.43;;;9.13;;
17528;SDS011;8882;53.192;8.184;2022-10-31T13:19:55;21.83;;;9.97;;
17528;SDS011;8882;53.192;8.184;2022-10-31T13:22:30;18.00;;;9.80;;
17528;SDS011;8882;53.192;8.184;2022-10-31T13:25:10;14.00;;;9.10;;
17528;SDS011;8882;53.192;8.184;2022-10-31T13:28:00;16.90;;;9.93;;
17528;SDS011;8882;53.192;8.184;2022-10-31T13:30:32;23.23;;;15.17;;
17528;SDS011;8882;53.192;8.184;2022-10-31T13:33:04;28.90;;;16.27;;
17528;SDS011;8882;53.192;8.184;2022-10-31T13:35:51;29.40;;;15.70;;
17528;SDS011;8882;53.192;8.184;2022-10-31T13:38:31;18.47;;;11.33;;
17528;SDS011;8882;53.192;8.184;2022-10-31T13:41:04;17.23;;;10.77;;
17528;SDS011;8882;53.192;8.184;2022-10-31T13:43:58;18.27;;;11.27;;
17528;SDS011;8882;53.192;8.184;2022-10-31T13:46:25;18.17;;;11.57;;
17528;SDS011;8882;53.192;8.184;2022-10-31T13:48:57;19.73;;;11.67;;
17528;SDS011;8882;53.192;8.184;2022-10-31T13:51:32;18.07;;;11.37;;
17528;SDS011;8882;53.192;8.184;2022-10-31T13:54:01;18.80;;;11.20;;
17528;SDS011;8882;53.192;8.184;2022-10-31T13:56:44;18.70;;;11.63;;
17528;SDS011;8882;53.192;8.184;2022-10-31T13:59:16;19.17;;;11.17;;
17528;SDS011;8882;53.192;8.184;2022-10-31T14:02:30;20.63;;;11.67;;
17528;SDS011;8882;53.192;8.184;2022-10-31T14:04:46;22.77;;;12.30;;
17528;SDS011;8882;53.192;8.184;2022-10-31T14:07:15;19.47;;;10.83;;
17528;SDS011;8882;53.192;8.184;2022-10-31T14:17:48;21.27;;;11.67;;
17528;SDS011;8882;53.192;8.184;2022-10-31T14:22:41;21.40;;;11.70;;
17528;SDS011;8882;53.192;8.184;2022-10-31T14:27:56;18.63;;;11.07;;
17528;SDS011;8882;53.192;8.184;2022-10-31T14:30:23;16.80;;;10.87;;
17528;SDS011;8882;53.192;8.184;2022-10-31T14:32:52;21.60;;;10.60;;
17528;SDS011;8882;53.192;8.184;2022-10-31T14:35:29;17.83;;;10.37;;
17528;SDS011;8882;53.192;8.184;2022-10-31T14:46:50;21.30;;;12.27;;
17528;SDS011;8882;53.192;8.184;2022-10-31T14:49:43;22.10;;;13.03;;
17528;SDS011;8882;53.192;8.184;2022-10-31T14:52:12;19.40;;;11.97;;
17528;SDS011;8882;53.192;8.184;2022-10-31T14:54:40;21.87;;;12.60;;
17528;SDS011;8882;53.192;8.184;2022-10-31T14:57:15;24.30;;;14.13;;
17528;SDS011;8882;53.192;8.184;2022-10-31T14:59:48;24.67;;;15.57;;
17528;SDS011;8882;53.192;8.184;2022-10-31T15:02:19;28.27;;;14.77;;
17528;SDS011;8882;53.192;8.184;2022-10-31T15:05:13;23.73;;;12.93;;
17528;SDS011;8882;53.192;8.184;2022-10-31T15:07:55;23.57;;;13.40;;
17528;SDS011;8882;53.192;8.184;2022-10-31T15:10:27;22.30;;;13.37;;
17528;SDS011;8882;53.192;8.184;2022-10-31T15:13:13;27.77;;;14.00;;
17528;SDS011;8882;53.192;8.184;2022-10-31T15:15:43;24.97;;;13.83;;
17528;SDS011;8882;53.192;8.184;2022-10-31T15:18:14;20.37;;;12.00;;
17528;SDS011;8882;53.192;8.184;2022-10-31T15:20:42;26.67;;;14.17;;
17528;SDS011;8882;53.192;8.184;2022-10-31T15:23:10;23.27;;;13.30;;
17528;SDS011;8882;53.192;8.184;2022-10-31T15:25:41;23.37;;;13.33;;
17528;SDS011;8882;53.192;8.184;2022-10-31T15:28:14;24.50;;;13.07;;
17528;SDS011;8882;53.192;8.184;2022-10-31T15:30:49;24.13;;;12.37;;
17528;SDS011;8882;53.192;8.184;2022-10-31T15:33:23;25.13;;;14.63;;
17528;SDS011;8882;53.192;8.184;2022-10-31T15:36:00;27.90;;;14.23;;
17528;SDS011;8882;53.192;8.184;2022-10-31T15:38:27;23.77;;;13.77;;
17528;SDS011;8882;53.192;8.184;2022-10-31T15:40:58;24.77;;;13.77;;
17528;SDS011;8882;53.192;8.184;2022-10-31T15:43:31;24.00;;;13.13;;
17528;SDS011;8882;53.192;8.184;2022-10-31T15:46:01;25.63;;;13.10;;
17528;SDS011;8882;53.192;8.184;2022-10-31T15:48:27;22.10;;;13.33;;
17528;SDS011;8882;53.192;8.184;2022-10-31T15:50:56;26.20;;;12.73;;
17528;SDS011;8882;53.192;8.184;2022-10-31T15:53:29;29.63;;;13.63;;
17528;SDS011;8882;53.192;8.184;2022-10-31T15:55:57;25.40;;;13.30;;
17528;SDS011;8882;53.192;8.184;2022-10-31T15:58:25;25.90;;;13.93;;
17528;SDS011;8882;53.192;8.184;2022-10-31T16:01:00;25.57;;;12.90;;
17528;SDS011;8882;53.192;8.184;2022-10-31T16:03:31;21.63;;;12.27;;
17528;SDS011;8882;53.192;8.184;2022-10-31T16:05:58;27.93;;;12.83;;
17528;SDS011;8882;53.192;8.184;2022-10-31T16:10:55;23.97;;;13.60;;
17528;SDS011;8882;53.192;8.184;2022-10-31T16:13:29;27.07;;;14.20;;
17528;SDS011;8882;53.192;8.184;2022-10-31T16:15:57;23.53;;;14.10;;
17528;SDS011;8882;53.192;8.184;2022-10-31T16:18:26;27.07;;;13.10;;
17528;SDS011;8882;53.192;8.184;2022-10-31T16:20:53;24.07;;;13.07;;
17528;SDS011;8882;53.192;8.184;2022-10-31T16:23:21;26.27;;;13.40;;
17528;SDS011;8882;53.192;8.184;2022-10-31T16:25:49;23.97;;;13.10;;
17528;SDS011;8882;53.192;8.184;2022-10-31T16:28:17;23.00;;;13.00;;
17528;SDS011;8882;53.192;8.184;2022-10-31T16:30:48;25.03;;;13.50;;
17528;SDS011;8882;53.192;8.184;2022-10-31T16:35:54;28.90;;;14.90;;
17528;SDS011;8882;53.192;8.184;2022-10-31T16:38:21;30.20;;;13.43;;
17528;SDS011;8882;53.192;8.184;2022-10-31T16:40:47;26.77;;;14.63;;
17528;SDS011;8882;53.192;8.184;2022-10-31T16:43:15;28.53;;;14.37;;
17528;SDS011;8882;53.192;8.184;2022-10-31T16:45:46;26.23;;;12.83;;
17528;SDS011;8882;53.192;8.184;2022-10-31T16:48:14;27.63;;;14.47;;
17528;SDS011;8882;53.192;8.184;2022-10-31T16:50:42;30.67;;;15.00;;
17528;SDS011;8882;53.192;8.184;2022-10-31T16:53:09;26.63;;;14.30;;
17528;SDS011;8882;53.192;8.184;2022-10-31T16:55:46;27.20;;;14.33;;
17528;SDS011;8882;53.192;8.184;2022-10-31T16:58:23;23.57;;;12.93;;
17528;SDS011;8882;53.192;8.184;2022-10-31T17:00:50;28.33;;;14.47;;
17528;SDS011;8882;53.192;8.184;2022-10-31T17:03:16;29.53;;;14.20;;
17528;SDS011;8882;53.192;8.184;2022-10-31T17:05:41;27.93;;;13.50;;
17528;SDS011;8882;53.192;8.184;2022-10-31T17:08:07;31.10;;;14.90;;
17528;SDS011;8882;53.192;8.184;2022-10-31T17:10:33;31.73;;;14.60;;
17528;SDS011;8882;53.192;8.184;2022-10-31T17:12:59;28.37;;;15.10;;
17528;SDS011;8882;53.192;8.184;2022-10-31T17:15:27;30.30;;;13.77;;
17528;SDS011;8882;53.192;8.184;2022-10-31T17:17:56;29.87;;;15.03;;
17528;SDS011;8882;53.192;8.184;2022-10-31T17:20:23;31.57;;;14.43;;
17528;SDS011;8882;53.192;8.184;2022-10-31T17:22:53;28.60;;;13.47;;
17528;SDS011;8882;53.192;8.184;2022-10-31T17:25:24;28.03;;;13.37;;
17528;SDS011;8882;53.192;8.184;2022-10-31T17:27:51;25.60;;;13.63;;
17528;SDS011;8882;53.192;8.184;2022-10-31T17:30:18;23.97;;;14.17;;
17528;SDS011;8882;53.192;8.184;2022-10-31T17:32:44;27.97;;;13.47;;
17528;SDS011;8882;53.192;8.184;2022-10-31T17:35:11;24.37;;;12.47;;
17528;SDS011;8882;53.192;8.184;2022-10-31T17:37:37;24.17;;;11.97;;
17528;SDS011;8882;53.192;8.184;2022-10-31T17:40:04;30.77;;;13.47;;
17528;SDS011;8882;53.192;8.184;2022-10-31T17:42:30;25.77;;;12.70;;
17528;SDS011;8882;53.192;8.184;2022-10-31T17:44:56;28.10;;;14.85;;
17528;SDS011;8882;53.192;8.184;2022-10-31T17:47:22;25.10;;;12.57;;
17528;SDS011;8882;53.192;8.184;2022-10-31T17:49:47;27.57;;;13.33;;
17528;SDS011;8882;53.192;8.184;2022-10-31T17:52:13;28.13;;;12.47;;
17528;SDS011;8882;53.192;8.184;2022-10-31T17:54:38;25.37;;;13.20;;
17528;SDS011;8882;53.192;8.184;2022-10-31T17:57:04;24.70;;;12.00;;
17528;SDS011;8882;53.192;8.184;2022-10-31T17:59:29;30.70;;;13.27;;
17528;SDS011;8882;53.192;8.184;2022-10-31T18:01:55;26.10;;;11.83;;
17528;SDS011;8882;53.192;8.184;2022-10-31T18:04:21;26.57;;;12.43;;
17528;SDS011;8882;53.192;8.184;2022-10-31T18:06:47;21.27;;;12.47;;
17528;SDS011;8882;53.192;8.184;2022-10-31T18:09:13;23.23;;;11.43;;
17528;SDS011;8882;53.192;8.184;2022-10-31T18:11:39;23.00;;;12.03;;
17528;SDS011;8882;53.192;8.184;2022-10-31T18:14:05;22.70;;;11.17;;
17528;SDS011;8882;53.192;8.184;2022-10-31T18:16:31;26.00;;;12.00;;
17528;SDS011;8882;53.192;8.184;2022-10-31T18:18:57;26.17;;;10.77;;
17528;SDS011;8882;53.192;8.184;2022-10-31T18:21:24;21.17;;;11.13;;
17528;SDS011;8882;53.192;8.184;2022-10-31T18:23:53;24.57;;;11.07;;
17528;SDS011;8882;53.192;8.184;2022-10-31T18:26:20;27.80;;;11.47;;
17528;SDS011;8882;53.192;8.184;2022-10-31T18:28:46;25.67;;;11.63;;
17528;SDS011;8882;53.192;8.184;2022-10-31T18:31:12;21.47;;;10.77;;
17528;SDS011;8882;53.192;8.184;2022-10-31T18:33:38;22.10;;;11.40;;
17528;SDS011;8882;53.192;8.184;2022-10-31T18:36:04;33.73;;;13.03;;
17528;SDS011;8882;53.192;8.184;2022-10-31T18:38:30;21.80;;;11.03;;
17528;SDS011;8882;53.192;8.184;2022-10-31T18:40:56;19.23;;;9.73;;
17528;SDS011;8882;53.192;8.184;2022-10-31T18:43:21;21.03;;;11.13;;
17528;SDS011;8882;53.192;8.184;2022-10-31T18:45:47;24.30;;;9.43;;
17528;SDS011;8882;53.192;8.184;2022-10-31T18:48:13;23.23;;;9.30;;
17528;SDS011;8882;53.192;8.184;2022-10-31T18:50:39;21.30;;;10.40;;
17528;SDS011;8882;53.192;8.184;2022-10-31T18:53:05;20.60;;;9.93;;
17528;SDS011;8882;53.192;8.184;2022-10-31T18:55:31;22.33;;;9.83;;
17528;SDS011;8882;53.192;8.184;2022-10-31T18:57:56;23.27;;;10.03;;
17528;SDS011;8882;53.192;8.184;2022-10-31T19:00:22;19.87;;;9.30;;
17528;SDS011;8882;53.192;8.184;2022-10-31T19:02:47;15.30;;;8.63;;
17528;SDS011;8882;53.192;8.184;2022-10-31T19:05:13;21.53;;;9.37;;
17528;SDS011;8882;53.192;8.184;2022-10-31T19:07:38;23.17;;;8.93;;
17528;SDS011;8882;53.192;8.184;2022-10-31T19:10:04;18.13;;;8.97;;
17528;SDS011;8882;53.192;8.184;2022-10-31T19:12:30;17.00;;;8.73;;
17528;SDS011;8882;53.192;8.184;2022-10-31T19:14:57;17.37;;;8.43;;
17528;SDS011;8882;53.192;8.184;2022-10-31T19:17:23;19.63;;;8.87;;
17528;SDS011;8882;53.192;8.184;2022-10-31T19:19:49;19.03;;;8.33;;
17528;SDS011;8882;53.192;8.184;2022-10-31T19:22:14;17.60;;;8.07;;
17528;SDS011;8882;53.192;8.184;2022-10-31T19:24:40;15.73;;;8.87;;
17528;SDS011;8882;53.192;8.184;2022-10-31T19:27:07;17.37;;;9.00;;
17528;SDS011;8882;53.192;8.184;2022-10-31T19:29:33;17.17;;;8.83;;
17528;SDS011;8882;53.192;8.184;2022-10-31T19:31:59;22.03;;;8.50;;
17528;SDS011;8882;53.192;8.184;2022-10-31T19:34:24;20.30;;;8.40;;
17528;SDS011;8882;53.192;8.184;2022-10-31T19:36:50;19.53;;;8.90;;
17528;SDS011;8882;53.192;8.184;2022-10-31T19:39:16;16.87;;;8.00;;
17528;SDS011;8882;53.192;8.184;2022-10-31T19:41:42;19.30;;;9.13;;
17528;SDS011;8882;53.192;8.184;2022-10-31T19:44:07;19.03;;;8.67;;
17528;SDS011;8882;53.192;8.184;2022-10-31T19:46:33;21.70;;;8.70;;
17528;SDS011;8882;53.192;8.184;2022-10-31T19:48:59;18.80;;;9.30;;
17528;SDS011;8882;53.192;8.184;2022-10-31T19:51:25;17.80;;;7.93;;
17528;SDS011;8882;53.192;8.184;2022-10-31T19:53:51;15.77;;;8.03;;
17528;SDS011;8882;53.192;8.184;2022-10-31T19:56:22;14.43;;;8.40;;
17528;SDS011;8882;53.192;8.184;2022-10-31T19:58:48;16.40;;;7.93;;
17528;SDS011;8882;53.192;8.184;2022-10-31T20:01:15;17.00;;;8.40;;
17528;SDS011;8882;53.192;8.184;2022-10-31T20:03:45;15.33;;;7.43;;
17528;SDS011;8882;53.192;8.184;2022-10-31T20:06:15;15.43;;;7.73;;
17528;SDS011;8882;53.192;8.184;2022-10-31T20:08:52;15.97;;;7.63;;
17528;SDS011;8882;53.192;8.184;2022-10-31T20:11:20;16.93;;;7.90;;
17528;SDS011;8882;53.192;8.184;2022-10-31T20:13:46;17.37;;;8.60;;
17528;SDS011;8882;53.192;8.184;2022-10-31T20:16:12;15.50;;;7.93;;
17528;SDS011;8882;53.192;8.184;2022-10-31T20:18:41;13.23;;;7.60;;
17528;SDS011;8882;53.192;8.184;2022-10-31T20:21:09;16.63;;;7.80;;
17528;SDS011;8882;53.192;8.184;2022-10-31T20:23:36;17.57;;;8.23;;
17528;SDS011;8882;53.192;8.184;2022-10-31T20:26:02;18.57;;;8.80;;
17528;SDS011;8882;53.192;8.184;2022-10-31T20:28:29;16.27;;;8.47;;
17528;SDS011;8882;53.192;8.184;2022-10-31T20:30:55;16.33;;;8.20;;
17528;SDS011;8882;53.192;8.184;2022-10-31T20:33:20;16.27;;;8.50;;
17528;SDS011;8882;53.192;8.184;2022-10-31T20:35:46;18.03;;;9.23;;
17528;SDS011;8882;53.192;8.184;2022-10-31T20:38:11;15.90;;;8.60;;
17528;SDS011;8882;53.192;8.184;2022-10-31T20:40:37;14.83;;;8.47;;
17528;SDS011;8882;53.192;8.184;2022-10-31T20:43:03;14.77;;;8.50;;
17528;SDS011;8882;53.192;8.184;2022-10-31T20:45:29;17.73;;;7.97;;
17528;SDS011;8882;53.192;8.184;2022-10-31T20:47:55;19.33;;;9.70;;
17528;SDS011;8882;53.192;8.184;2022-10-31T20:50:21;21.10;;;9.80;;
17528;SDS011;8882;53.192;8.184;2022-10-31T20:52:47;15.40;;;8.20;;
17528;SDS011;8882;53.192;8.184;2022-10-31T20:55:13;22.90;;;8.90;;
17528;SDS011;8882;53.192;8.184;2022-10-31T20:57:39;18.30;;;8.77;;
17528;SDS011;8882;53.192;8.184;2022-10-31T21:00:05;21.07;;;9.43;;
17528;SDS011;8882;53.192;8.184;2022-10-31T21:02:31;15.57;;;8.80;;
17528;SDS011;8882;53.192;8.184;2022-10-31T21:04:57;21.63;;;9.30;;
17528;SDS011;8882;53.192;8.184;2022-10-31T21:07:22;17.00;;;8.80;;
17528;SDS011;8882;53.192;8.184;2022-10-31T21:09:48;21.93;;;9.63;;
17528;SDS011;8882;53.192;8.184;2022-10-31T21:15:17;17.17;;;8.97;;
17528;SDS011;8882;53.192;8.184;2022-10-31T21:17:43;20.47;;;8.40;;
17528;SDS011;8882;53.192;8.184;2022-10-31T21:20:08;23.27;;;9.13;;
17528;SDS011;8882;53.192;8.184;2022-10-31T21:22:34;18.10;;;9.20;;
17528;SDS011;8882;53.192;8.184;2022-10-31T21:25:00;19.67;;;8.87;;
17528;SDS011;8882;53.192;8.184;2022-10-31T21:27:26;20.10;;;9.07;;
17528;SDS011;8882;53.192;8.184;2022-10-31T21:29:51;19.77;;;10.00;;
17528;SDS011;8882;53.192;8.184;2022-10-31T21:32:17;16.80;;;9.03;;
17528;SDS011;8882;53.192;8.184;2022-10-31T21:34:42;17.03;;;9.33;;
17528;SDS011;8882;53.192;8.184;2022-10-31T21:37:08;23.93;;;10.43;;
17528;SDS011;8882;53.192;8.184;2022-10-31T21:39:33;20.20;;;9.43;;
17528;SDS011;8882;53.192;8.184;2022-10-31T21:41:59;19.27;;;9.70;;
17528;SDS011;8882;53.192;8.184;2022-10-31T21:44:24;22.13;;;9.87;;